sensor_id;sensor_type;location;lat;lon;timestamp;pressure;altitude;pressure_sealevel;temperature;humidity
65276;BME280;51875;49.994;14.052;2023-04-15T00:01:13;96920.97;;;7.79;100.00
65276;BME280;51875;49.994;14.052;2023-04-15T00:02:33;96920.66;;;7.87;100.00
65276;BME280;51875;49.994;14.052;2023-04-15T00:03:52;96918.28;;;7.81;100.00
65276;BME280;51875;49.994;14.052;2023-04-15T00:05:08;96923.19;;;7.88;100.00
65276;BME280;51875;49.994;14.052;2023-04-15T00:06:24;96925.53;;;7.95;100.00
65276;BME280;51875;49.994;14.052;2023-04-15T00:07:40;96919.88;;;7.85;100.00
65276;BME280;51875;49.994;14.052;2023-04-15T00:08:56;96909.66;;;7.80;100.00
65276;BME280;51875;49.994;14.052;2023-04-15T00:10:12;96923.31;;;7.85;100.00
65276;BME280;51875;49.994;14.052;2023-04-15T00:11:27;96914.72;;;7.83;100.00
65276;BME280;51875;49.994;14.052;2023-04-15T00:12:43;96913.94;;;7.81;100.00
65276;BME280;51875;49.994;14.052;2023-04-15T00:13:58;96917.72;;;7.95;100.00
65276;BME280;51875;49.994;14.052;2023-04-15T00:15:15;96916.31;;;8.08;100.00
65276;BME280;51875;49.994;14.052;2023-04-15T00:16:30;96912.59;;;8.14;100.00
65276;BME280;51875;49.994;14.052;2023-04-15T00:17:46;96913.69;;;8.08;100.00
65276;BME280;51875;49.994;14.052;2023-04-15T00:19:01;96913.88;;;8.03;100.00
65276;BME280;51875;49.994;14.052;2023-04-15T00:20:17;96913.84;;;8.05;100.00
65276;BME280;51875;49.994;14.052;2023-04-15T00:21:33;96912.84;;;8.08;100.00
65276;BME280;51875;49.994;14.052;2023-04-15T00:22:49;96911.22;;;8.05;100.00
65276;BME280;51875;49.994;14.052;2023-04-15T00:24:04;96909.00;;;7.96;100.00
65276;BME280;51875;49.994;14.052;2023-04-15T00:25:20;96913.63;;;7.89;100.00
65276;BME280;51875;49.994;14.052;2023-04-15T00:26:36;96914.16;;;7.97;100.00
65276;BME280;51875;49.994;14.052;2023-04-15T00:27:51;96910.13;;;8.11;100.00
65276;BME280;51875;49.994;14.052;2023-04-15T00:29:07;96914.19;;;8.16;100.00
65276;BME280;51875;49.994;14.052;2023-04-15T00:30:23;96912.13;;;8.04;100.00
65276;BME280;51875;49.994;14.052;2023-04-15T00:31:40;96899.75;;;8.09;100.00
65276;BME280;51875;49.994;14.052;2023-04-15T00:32:56;96911.75;;;7.93;100.00
65276;BME280;51875;49.994;14.052;2023-04-15T00:34:11;96906.13;;;8.02;100.00
65276;BME280;51875;49.994;14.052;2023-04-15T00:35:28;96903.06;;;7.92;100.00
65276;BME280;51875;49.994;14.052;2023-04-15T00:36:46;96906.34;;;7.97;100.00
65276;BME280;51875;49.994;14.052;2023-04-15T00:38:03;96906.00;;;8.05;100.00
65276;BME280;51875;49.994;14.052;2023-04-15T00:39:21;96900.25;;;7.97;100.00
65276;BME280;51875;49.994;14.052;2023-04-15T00:40:37;96898.72;;;7.93;100.00
65276;BME280;51875;49.994;14.052;2023-04-15T00:41:52;96901.78;;;8.02;100.00
65276;BME280;51875;49.994;14.052;2023-04-15T00:43:08;96903.06;;;8.13;100.00
65276;BME280;51875;49.994;14.052;2023-04-15T00:44:24;96901.56;;;8.07;100.00
65276;BME280;51875;49.994;14.052;2023-04-15T00:45:39;96902.69;;;8.01;100.00
65276;BME280;51875;49.994;14.052;2023-04-15T00:46:55;96905.63;;;7.94;100.00
65276;BME280;51875;49.994;14.052;2023-04-15T00:48:13;96898.44;;;7.78;100.00
65276;BME280;51875;49.994;14.052;2023-04-15T00:49:28;96899.03;;;7.85;100.00
65276;BME280;51875;49.994;14.052;2023-04-15T00:50:44;96900.53;;;8.11;100.00
65276;BME280;51875;49.994;14.052;2023-04-15T00:51:59;96903.28;;;8.08;100.00
65276;BME280;51875;49.994;14.052;2023-04-15T00:53:15;96899.81;;;8.08;100.00
65276;BME280;51875;49.994;14.052;2023-04-15T00:54:31;96899.44;;;7.96;100.00
65276;BME280;51875;49.994;14.052;2023-04-15T00:55:47;96900.31;;;7.95;100.00
65276;BME280;51875;49.994;14.052;2023-04-15T00:57:04;96896.84;;;7.96;100.00
65276;BME280;51875;49.994;14.052;2023-04-15T00:58:20;96895.91;;;7.97;100.00
65276;BME280;51875;49.994;14.052;2023-04-15T00:59:36;96892.63;;;7.92;100.00
65276;BME280;51875;49.994;14.052;2023-04-15T01:00:52;96898.84;;;7.89;100.00
65276;BME280;51875;49.994;14.052;2023-04-15T01:02:09;96898.63;;;7.94;100.00
65276;BME280;51875;49.994;14.052;2023-04-15T01:03:25;96892.91;;;7.86;100.00
65276;BME280;51875;49.994;14.052;2023-04-15T01:04:40;96893.22;;;7.99;100.00
65276;BME280;51875;49.994;14.052;2023-04-15T01:05:56;96885.53;;;7.96;100.00
65276;BME280;51875;49.994;14.052;2023-04-15T01:07:12;96889.03;;;7.74;100.00
65276;BME280;51875;49.994;14.052;2023-04-15T01:08:28;96886.13;;;8.02;100.00
65276;BME280;51875;49.994;14.052;2023-04-15T01:09:44;96884.91;;;7.90;100.00
65276;BME280;51875;49.994;14.052;2023-04-15T01:11:00;96883.44;;;7.83;100.00
65276;BME280;51875;49.994;14.052;2023-04-15T01:12:18;96891.84;;;7.90;100.00
65276;BME280;51875;49.994;14.052;2023-04-15T01:13:35;96885.22;;;8.03;100.00
65276;BME280;51875;49.994;14.052;2023-04-15T01:14:52;96887.56;;;7.89;100.00
65276;BME280;51875;49.994;14.052;2023-04-15T01:16:08;96881.38;;;7.91;100.00
65276;BME280;51875;49.994;14.052;2023-04-15T01:17:24;96889.19;;;7.91;100.00
65276;BME280;51875;49.994;14.052;2023-04-15T01:18:40;96886.91;;;8.04;100.00
65276;BME280;51875;49.994;14.052;2023-04-15T01:19:55;96890.69;;;7.97;100.00
65276;BME280;51875;49.994;14.052;2023-04-15T01:21:14;96886.69;;;7.88;100.00
65276;BME280;51875;49.994;14.052;2023-04-15T01:22:30;96885.75;;;8.12;100.00
65276;BME280;51875;49.994;14.052;2023-04-15T01:23:48;96874.88;;;7.81;100.00
65276;BME280;51875;49.994;14.052;2023-04-15T01:25:09;96872.72;;;7.91;100.00
65276;BME280;51875;49.994;14.052;2023-04-15T01:26:25;96872.91;;;7.86;100.00
65276;BME280;51875;49.994;14.052;2023-04-15T01:27:42;96880.66;;;7.88;100.00
65276;BME280;51875;49.994;14.052;2023-04-15T01:28:58;96874.53;;;7.89;100.00
65276;BME280;51875;49.994;14.052;2023-04-15T01:30:13;96871.59;;;7.97;100.00
65276;BME280;51875;49.994;14.052;2023-04-15T01:31:29;96871.75;;;7.94;100.00
65276;BME280;51875;49.994;14.052;2023-04-15T01:32:45;96868.34;;;7.91;100.00
65276;BME280;51875;49.994;14.052;2023-04-15T01:34:01;96864.56;;;7.78;100.00
65276;BME280;51875;49.994;14.052;2023-04-15T01:35:17;96861.19;;;7.76;100.00
65276;BME280;51875;49.994;14.052;2023-04-15T01:36:33;96864.25;;;7.86;100.00
65276;BME280;51875;49.994;14.052;2023-04-15T01:37:48;96857.13;;;7.69;100.00
65276;BME280;51875;49.994;14.052;2023-04-15T01:39:04;96859.22;;;7.81;100.00
65276;BME280;51875;49.994;14.052;2023-04-15T01:40:21;96854.59;;;7.88;100.00
65276;BME280;51875;49.994;14.052;2023-04-15T01:41:37;96849.78;;;7.78;100.00
65276;BME280;51875;49.994;14.052;2023-04-15T01:42:52;96857.44;;;7.82;100.00
65276;BME280;51875;49.994;14.052;2023-04-15T01:44:08;96853.56;;;7.92;100.00
65276;BME280;51875;49.994;14.052;2023-04-15T01:45:24;96857.25;;;7.86;100.00
65276;BME280;51875;49.994;14.052;2023-04-15T01:46:40;96855.03;;;7.98;100.00
65276;BME280;51875;49.994;14.052;2023-04-15T01:47:56;96856.56;;;7.83;100.00
65276;BME280;51875;49.994;14.052;2023-04-15T01:49:11;96858.38;;;7.81;100.00
65276;BME280;51875;49.994;14.052;2023-04-15T01:50:27;96863.56;;;7.81;100.00
65276;BME280;51875;49.994;14.052;2023-04-15T01:51:43;96858.91;;;7.89;100.00
65276;BME280;51875;49.994;14.052;2023-04-15T01:52:58;96866.72;;;7.89;100.00
65276;BME280;51875;49.994;14.052;2023-04-15T01:54:14;96864.97;;;7.89;100.00
65276;BME280;51875;49.994;14.052;2023-04-15T01:55:29;96864.88;;;7.91;100.00
65276;BME280;51875;49.994;14.052;2023-04-15T01:56:45;96859.34;;;7.99;100.00
65276;BME280;51875;49.994;14.052;2023-04-15T01:58:01;96857.84;;;7.93;100.00
65276;BME280;51875;49.994;14.052;2023-04-15T01:59:16;96863.00;;;7.95;100.00
65276;BME280;51875;49.994;14.052;2023-04-15T02:00:33;96867.31;;;7.96;100.00
65276;BME280;51875;49.994;14.052;2023-04-15T02:01:48;96862.53;;;8.05;100.00
65276;BME280;51875;49.994;14.052;2023-04-15T02:03:04;96867.50;;;8.12;100.00
65276;BME280;51875;49.994;14.052;2023-04-15T02:04:19;96866.63;;;8.11;100.00
65276;BME280;51875;49.994;14.052;2023-04-15T02:05:35;96874.06;;;8.00;100.00
65276;BME280;51875;49.994;14.052;2023-04-15T02:06:50;96866.69;;;8.10;100.00
65276;BME280;51875;49.994;14.052;2023-04-15T02:08:06;96875.50;;;8.07;100.00
65276;BME280;51875;49.994;14.052;2023-04-15T02:09:22;96873.03;;;8.04;100.00
65276;BME280;51875;49.994;14.052;2023-04-15T02:10:37;96875.44;;;8.09;100.00
65276;BME280;51875;49.994;14.052;2023-04-15T02:11:53;96876.94;;;7.94;100.00
65276;BME280;51875;49.994;14.052;2023-04-15T02:13:09;96883.25;;;7.88;100.00
65276;BME280;51875;49.994;14.052;2023-04-15T02:14:25;96879.22;;;8.01;100.00
65276;BME280;51875;49.994;14.052;2023-04-15T02:15:48;96879.41;;;7.97;100.00
65276;BME280;51875;49.994;14.052;2023-04-15T02:17:04;96876.56;;;7.82;100.00
65276;BME280;51875;49.994;14.052;2023-04-15T02:18:23;96885.41;;;7.99;100.00
65276;BME280;51875;49.994;14.052;2023-04-15T02:19:38;96881.06;;;7.99;100.00
65276;BME280;51875;49.994;14.052;2023-04-15T02:20:55;96880.34;;;7.96;100.00
65276;BME280;51875;49.994;14.052;2023-04-15T02:22:12;96881.03;;;7.78;100.00
65276;BME280;51875;49.994;14.052;2023-04-15T02:23:32;96880.84;;;7.83;100.00
65276;BME280;51875;49.994;14.052;2023-04-15T02:24:48;96883.31;;;7.86;100.00
65276;BME280;51875;49.994;14.052;2023-04-15T02:26:03;96886.09;;;7.82;100.00
65276;BME280;51875;49.994;14.052;2023-04-15T02:27:19;96885.09;;;7.86;100.00
65276;BME280;51875;49.994;14.052;2023-04-15T02:28:36;96886.69;;;7.88;100.00
65276;BME280;51875;49.994;14.052;2023-04-15T02:29:52;96888.16;;;7.96;100.00
65276;BME280;51875;49.994;14.052;2023-04-15T02:31:08;96882.34;;;7.89;100.00
65276;BME280;51875;49.994;14.052;2023-04-15T02:32:23;96894.59;;;7.87;100.00
65276;BME280;51875;49.994;14.052;2023-04-15T02:33:39;96887.69;;;7.86;100.00
65276;BME280;51875;49.994;14.052;2023-04-15T02:34:55;96899.28;;;7.78;100.00
65276;BME280;51875;49.994;14.052;2023-04-15T02:36:11;96897.94;;;7.90;100.00
65276;BME280;51875;49.994;14.052;2023-04-15T02:37:26;96897.78;;;7.73;100.00
65276;BME280;51875;49.994;14.052;2023-04-15T02:38:42;96897.41;;;7.82;100.00
65276;BME280;51875;49.994;14.052;2023-04-15T02:39:58;96900.38;;;7.73;100.00
65276;BME280;51875;49.994;14.052;2023-04-15T02:41:15;96894.78;;;7.82;100.00
65276;BME280;51875;49.994;14.052;2023-04-15T02:42:30;96896.81;;;7.75;100.00
65276;BME280;51875;49.994;14.052;2023-04-15T02:43:46;96904.44;;;7.80;100.00
65276;BME280;51875;49.994;14.052;2023-04-15T02:45:02;96898.25;;;7.83;100.00
65276;BME280;51875;49.994;14.052;2023-04-15T02:46:18;96899.03;;;7.85;100.00
65276;BME280;51875;49.994;14.052;2023-04-15T02:47:34;96905.41;;;7.77;100.00
65276;BME280;51875;49.994;14.052;2023-04-15T02:48:50;96900.31;;;7.74;100.00
65276;BME280;51875;49.994;14.052;2023-04-15T02:50:08;96910.81;;;7.94;100.00
65276;BME280;51875;49.994;14.052;2023-04-15T02:51:29;96906.34;;;7.97;100.00
65276;BME280;51875;49.994;14.052;2023-04-15T02:52:46;96904.97;;;8.09;100.00
65276;BME280;51875;49.994;14.052;2023-04-15T02:54:02;96902.38;;;7.66;100.00
65276;BME280;51875;49.994;14.052;2023-04-15T02:55:17;96909.78;;;7.77;100.00
65276;BME280;51875;49.994;14.052;2023-04-15T02:56:33;96909.41;;;7.43;100.00
65276;BME280;51875;49.994;14.052;2023-04-15T02:57:48;96907.09;;;7.35;100.00
65276;BME280;51875;49.994;14.052;2023-04-15T02:59:04;96906.50;;;7.29;100.00
65276;BME280;51875;49.994;14.052;2023-04-15T03:00:20;96907.28;;;7.31;100.00
65276;BME280;51875;49.994;14.052;2023-04-15T03:01:36;96893.56;;;7.26;100.00
65276;BME280;51875;49.994;14.052;2023-04-15T03:02:57;96897.00;;;7.28;100.00
65276;BME280;51875;49.994;14.052;2023-04-15T03:04:13;96900.59;;;7.24;100.00
65276;BME280;51875;49.994;14.052;2023-04-15T03:05:28;96899.38;;;7.32;100.00
65276;BME280;51875;49.994;14.052;2023-04-15T03:06:44;96901.34;;;7.27;100.00
65276;BME280;51875;49.994;14.052;2023-04-15T03:08:00;96896.13;;;7.27;100.00
65276;BME280;51875;49.994;14.052;2023-04-15T03:09:17;96902.84;;;7.33;100.00
65276;BME280;51875;49.994;14.052;2023-04-15T03:10:33;96906.78;;;7.43;100.00
65276;BME280;51875;49.994;14.052;2023-04-15T03:11:48;96899.63;;;7.48;100.00
65276;BME280;51875;49.994;14.052;2023-04-15T03:13:05;96889.56;;;7.61;100.00
65276;BME280;51875;49.994;14.052;2023-04-15T03:14:21;96889.75;;;7.57;100.00
65276;BME280;51875;49.994;14.052;2023-04-15T03:15:36;96888.16;;;7.53;100.00
65276;BME280;51875;49.994;14.052;2023-04-15T03:16:52;96896.56;;;7.39;100.00
65276;BME280;51875;49.994;14.052;2023-04-15T03:18:08;96893.41;;;7.73;100.00
65276;BME280;51875;49.994;14.052;2023-04-15T03:19:23;96902.16;;;7.72;100.00
65276;BME280;51875;49.994;14.052;2023-04-15T03:20:39;96895.59;;;7.41;100.00
65276;BME280;51875;49.994;14.052;2023-04-15T03:21:54;96898.69;;;7.29;100.00
65276;BME280;51875;49.994;14.052;2023-04-15T03:23:10;96901.03;;;7.35;100.00
65276;BME280;51875;49.994;14.052;2023-04-15T03:24:26;96901.56;;;7.66;100.00
65276;BME280;51875;49.994;14.052;2023-04-15T03:25:44;96902.84;;;7.33;100.00
65276;BME280;51875;49.994;14.052;2023-04-15T03:26:59;96909.09;;;7.29;100.00
65276;BME280;51875;49.994;14.052;2023-04-15T03:28:16;96898.78;;;7.26;100.00
65276;BME280;51875;49.994;14.052;2023-04-15T03:29:32;96901.47;;;7.24;100.00
65276;BME280;51875;49.994;14.052;2023-04-15T03:30:47;96899.50;;;7.52;100.00
65276;BME280;51875;49.994;14.052;2023-04-15T03:32:03;96896.88;;;7.31;100.00
65276;BME280;51875;49.994;14.052;2023-04-15T03:33:18;96898.16;;;7.19;100.00
65276;BME280;51875;49.994;14.052;2023-04-15T03:34:34;96900.91;;;7.38;100.00
65276;BME280;51875;49.994;14.052;2023-04-15T03:35:50;96900.84;;;7.40;100.00
65276;BME280;51875;49.994;14.052;2023-04-15T03:37:06;96899.13;;;7.61;100.00
65276;BME280;51875;49.994;14.052;2023-04-15T03:38:22;96903.94;;;7.49;100.00
65276;BME280;51875;49.994;14.052;2023-04-15T03:39:38;96899.91;;;7.63;100.00
65276;BME280;51875;49.994;14.052;2023-04-15T03:40:54;96899.47;;;7.74;100.00
65276;BME280;51875;49.994;14.052;2023-04-15T03:42:09;96895.88;;;7.56;100.00
65276;BME280;51875;49.994;14.052;2023-04-15T03:43:25;96884.59;;;7.55;100.00
65276;BME280;51875;49.994;14.052;2023-04-15T03:44:41;96897.88;;;7.49;100.00
65276;BME280;51875;49.994;14.052;2023-04-15T03:45:57;96895.50;;;7.43;100.00
65276;BME280;51875;49.994;14.052;2023-04-15T03:47:12;96896.78;;;7.32;100.00
65276;BME280;51875;49.994;14.052;2023-04-15T03:48:28;96897.50;;;7.36;100.00
65276;BME280;51875;49.994;14.052;2023-04-15T03:49:43;96895.78;;;7.57;100.00
65276;BME280;51875;49.994;14.052;2023-04-15T03:50:59;96891.81;;;7.48;100.00
65276;BME280;51875;49.994;14.052;2023-04-15T03:52:14;96898.06;;;7.44;100.00
65276;BME280;51875;49.994;14.052;2023-04-15T03:53:30;96896.47;;;7.40;100.00
65276;BME280;51875;49.994;14.052;2023-04-15T03:54:46;96898.06;;;7.44;100.00
65276;BME280;51875;49.994;14.052;2023-04-15T03:56:02;96892.84;;;7.44;100.00
65276;BME280;51875;49.994;14.052;2023-04-15T03:57:17;96894.47;;;7.47;100.00
65276;BME280;51875;49.994;14.052;2023-04-15T03:58:33;96895.81;;;7.35;100.00
65276;BME280;51875;49.994;14.052;2023-04-15T03:59:48;96895.16;;;7.30;100.00
65276;BME280;51875;49.994;14.052;2023-04-15T04:01:04;96890.00;;;7.28;100.00
65276;BME280;51875;49.994;14.052;2023-04-15T04:02:20;96895.22;;;7.28;100.00
65276;BME280;51875;49.994;14.052;2023-04-15T04:03:37;96896.78;;;7.32;100.00
65276;BME280;51875;49.994;14.052;2023-04-15T04:04:52;96894.19;;;7.32;100.00
65276;BME280;51875;49.994;14.052;2023-04-15T04:06:08;96898.00;;;7.24;100.00
65276;BME280;51875;49.994;14.052;2023-04-15T04:07:24;96903.50;;;7.38;100.00
65276;BME280;51875;49.994;14.052;2023-04-15T04:08:40;96902.81;;;7.34;100.00
65276;BME280;51875;49.994;14.052;2023-04-15T04:09:56;96907.81;;;7.39;100.00
65276;BME280;51875;49.994;14.052;2023-04-15T04:11:12;96904.28;;;7.40;100.00
65276;BME280;51875;49.994;14.052;2023-04-15T04:12:27;96904.53;;;7.34;100.00
65276;BME280;51875;49.994;14.052;2023-04-15T04:13:43;96911.22;;;7.41;100.00
65276;BME280;51875;49.994;14.052;2023-04-15T04:14:58;96906.88;;;7.40;100.00
65276;BME280;51875;49.994;14.052;2023-04-15T04:16:14;96908.34;;;7.47;100.00
65276;BME280;51875;49.994;14.052;2023-04-15T04:17:30;96903.47;;;7.17;100.00
65276;BME280;51875;49.994;14.052;2023-04-15T04:18:45;96906.00;;;7.41;100.00
65276;BME280;51875;49.994;14.052;2023-04-15T04:20:01;96908.47;;;7.44;100.00
65276;BME280;51875;49.994;14.052;2023-04-15T04:21:17;96916.81;;;7.53;100.00
65276;BME280;51875;49.994;14.052;2023-04-15T04:22:37;96912.81;;;7.44;100.00
65276;BME280;51875;49.994;14.052;2023-04-15T04:23:53;96907.59;;;7.66;100.00
65276;BME280;51875;49.994;14.052;2023-04-15T04:25:09;96908.59;;;7.63;100.00
65276;BME280;51875;49.994;14.052;2023-04-15T04:26:25;96908.50;;;7.65;100.00
65276;BME280;51875;49.994;14.052;2023-04-15T04:27:41;96917.22;;;7.64;100.00
65276;BME280;51875;49.994;14.052;2023-04-15T04:28:57;96916.13;;;7.49;100.00
65276;BME280;51875;49.994;14.052;2023-04-15T04:30:12;96920.34;;;7.52;100.00
65276;BME280;51875;49.994;14.052;2023-04-15T04:31:27;96921.16;;;7.74;100.00
65276;BME280;51875;49.994;14.052;2023-04-15T04:32:43;96918.09;;;7.65;100.00
65276;BME280;51875;49.994;14.052;2023-04-15T04:33:59;96913.41;;;7.73;100.00
65276;BME280;51875;49.994;14.052;2023-04-15T04:35:14;96919.47;;;7.73;100.00
65276;BME280;51875;49.994;14.052;2023-04-15T04:36:30;96922.53;;;7.62;100.00
65276;BME280;51875;49.994;14.052;2023-04-15T04:37:46;96925.16;;;7.83;100.00
65276;BME280;51875;49.994;14.052;2023-04-15T04:39:02;96925.38;;;7.99;100.00
65276;BME280;51875;49.994;14.052;2023-04-15T04:40:18;96919.97;;;7.82;100.00
65276;BME280;51875;49.994;14.052;2023-04-15T04:41:34;96927.44;;;7.91;100.00
65276;BME280;51875;49.994;14.052;2023-04-15T04:42:49;96924.56;;;7.54;100.00
65276;BME280;51875;49.994;14.052;2023-04-15T04:44:05;96927.38;;;7.49;100.00
65276;BME280;51875;49.994;14.052;2023-04-15T04:45:21;96932.63;;;7.70;100.00
65276;BME280;51875;49.994;14.052;2023-04-15T04:46:36;96923.50;;;7.81;100.00
65276;BME280;51875;49.994;14.052;2023-04-15T04:47:52;96932.41;;;7.75;100.00
65276;BME280;51875;49.994;14.052;2023-04-15T04:49:08;96929.50;;;7.40;100.00
65276;BME280;51875;49.994;14.052;2023-04-15T04:50:23;96934.13;;;7.09;100.00
65276;BME280;51875;49.994;14.052;2023-04-15T04:51:39;96931.50;;;7.33;100.00
65276;BME280;51875;49.994;14.052;2023-04-15T04:52:55;96937.84;;;7.48;100.00
65276;BME280;51875;49.994;14.052;2023-04-15T04:54:10;96937.25;;;7.41;100.00
65276;BME280;51875;49.994;14.052;2023-04-15T04:55:26;96934.81;;;7.59;100.00
65276;BME280;51875;49.994;14.052;2023-04-15T04:56:42;96934.81;;;7.59;100.00
65276;BME280;51875;49.994;14.052;2023-04-15T04:57:57;96933.53;;;7.69;100.00
65276;BME280;51875;49.994;14.052;2023-04-15T04:59:13;96929.03;;;7.73;100.00
65276;BME280;51875;49.994;14.052;2023-04-15T05:00:29;96939.69;;;7.89;100.00
65276;BME280;51875;49.994;14.052;2023-04-15T05:01:44;96933.09;;;7.80;100.00
65276;BME280;51875;49.994;14.052;2023-04-15T05:03:00;96931.84;;;7.24;100.00
65276;BME280;51875;49.994;14.052;2023-04-15T05:04:22;96942.63;;;7.59;100.00
65276;BME280;51875;49.994;14.052;2023-04-15T05:05:37;96941.56;;;7.42;100.00
65276;BME280;51875;49.994;14.052;2023-04-15T05:06:55;96945.53;;;7.51;100.00
65276;BME280;51875;49.994;14.052;2023-04-15T05:08:11;96945.13;;;7.40;100.00
65276;BME280;51875;49.994;14.052;2023-04-15T05:09:26;96948.03;;;7.32;100.00
65276;BME280;51875;49.994;14.052;2023-04-15T05:10:42;96944.44;;;7.57;100.00
65276;BME280;51875;49.994;14.052;2023-04-15T05:11:58;96946.19;;;7.34;100.00
65276;BME280;51875;49.994;14.052;2023-04-15T05:13:13;96945.16;;;7.60;100.00
65276;BME280;51875;49.994;14.052;2023-04-15T05:14:29;96937.94;;;7.67;100.00
65276;BME280;51875;49.994;14.052;2023-04-15T05:15:46;96944.06;;;7.66;100.00
65276;BME280;51875;49.994;14.052;2023-04-15T05:17:02;96946.28;;;7.55;100.00
65276;BME280;51875;49.994;14.052;2023-04-15T05:18:18;96944.66;;;7.73;100.00
65276;BME280;51875;49.994;14.052;2023-04-15T05:19:33;96949.03;;;7.72;100.00
65276;BME280;51875;49.994;14.052;2023-04-15T05:20:49;96950.09;;;7.89;100.00
65276;BME280;51875;49.994;14.052;2023-04-15T05:22:05;96959.28;;;7.77;100.00
65276;BME280;51875;49.994;14.052;2023-04-15T05:23:21;96954.66;;;7.39;100.00
65276;BME280;51875;49.994;14.052;2023-04-15T05:24:39;96963.63;;;6.86;100.00
65276;BME280;51875;49.994;14.052;2023-04-15T05:25:55;96959.84;;;6.71;100.00
65276;BME280;51875;49.994;14.052;2023-04-15T05:27:10;96968.25;;;7.01;100.00
65276;BME280;51875;49.994;14.052;2023-04-15T05:28:26;96963.03;;;7.47;100.00
65276;BME280;51875;49.994;14.052;2023-04-15T05:29:41;96967.75;;;7.82;100.00
65276;BME280;51875;49.994;14.052;2023-04-15T05:30:57;96974.31;;;7.70;100.00
65276;BME280;51875;49.994;14.052;2023-04-15T05:32:12;96971.09;;;7.63;100.00
65276;BME280;51875;49.994;14.052;2023-04-15T05:33:28;96972.91;;;7.84;100.00
65276;BME280;51875;49.994;14.052;2023-04-15T05:34:44;96979.09;;;7.81;100.00
65276;BME280;51875;49.994;14.052;2023-04-15T05:35:59;96972.47;;;7.72;100.00
65276;BME280;51875;49.994;14.052;2023-04-15T05:37:15;96979.38;;;7.96;100.00
65276;BME280;51875;49.994;14.052;2023-04-15T05:38:31;96982.13;;;7.70;100.00
65276;BME280;51875;49.994;14.052;2023-04-15T05:39:46;96984.31;;;7.59;100.00
65276;BME280;51875;49.994;14.052;2023-04-15T05:41:02;96983.69;;;7.74;100.00
65276;BME280;51875;49.994;14.052;2023-04-15T05:42:18;96988.28;;;7.90;100.00
65276;BME280;51875;49.994;14.052;2023-04-15T05:43:33;96991.06;;;7.63;100.00
65276;BME280;51875;49.994;14.052;2023-04-15T05:44:49;97000.44;;;7.45;100.00
65276;BME280;51875;49.994;14.052;2023-04-15T05:46:05;96999.06;;;7.36;100.00
65276;BME280;51875;49.994;14.052;2023-04-15T05:47:20;96997.69;;;7.26;100.00
65276;BME280;51875;49.994;14.052;2023-04-15T05:48:36;97001.59;;;7.15;100.00
65276;BME280;51875;49.994;14.052;2023-04-15T05:49:52;96999.63;;;7.20;100.00
65276;BME280;51875;49.994;14.052;2023-04-15T05:51:07;97004.56;;;7.51;100.00
65276;BME280;51875;49.994;14.052;2023-04-15T05:52:23;97004.38;;;7.33;100.00
65276;BME280;51875;49.994;14.052;2023-04-15T05:53:39;97008.13;;;7.26;100.00
65276;BME280;51875;49.994;14.052;2023-04-15T05:54:55;97007.63;;;7.16;100.00
65276;BME280;51875;49.994;14.052;2023-04-15T05:56:11;97012.66;;;7.20;100.00
65276;BME280;51875;49.994;14.052;2023-04-15T05:57:27;97016.16;;;7.43;100.00
65276;BME280;51875;49.994;14.052;2023-04-15T05:58:42;97012.38;;;7.51;100.00
65276;BME280;51875;49.994;14.052;2023-04-15T05:59:58;97014.59;;;7.15;100.00
65276;BME280;51875;49.994;14.052;2023-04-15T06:01:14;97020.31;;;7.47;100.00
65276;BME280;51875;49.994;14.052;2023-04-15T06:02:29;97020.06;;;7.54;100.00
65276;BME280;51875;49.994;14.052;2023-04-15T06:03:46;97020.16;;;7.52;100.00
65276;BME280;51875;49.994;14.052;2023-04-15T06:05:01;97023.81;;;7.24;100.00
65276;BME280;51875;49.994;14.052;2023-04-15T06:06:17;97027.28;;;7.47;100.00
65276;BME280;51875;49.994;14.052;2023-04-15T06:07:34;97029.09;;;7.45;100.00
65276;BME280;51875;49.994;14.052;2023-04-15T06:08:49;97031.91;;;7.62;100.00
65276;BME280;51875;49.994;14.052;2023-04-15T06:10:05;97020.28;;;7.71;100.00
65276;BME280;51875;49.994;14.052;2023-04-15T06:11:21;97028.59;;;7.59;100.00
65276;BME280;51875;49.994;14.052;2023-04-15T06:12:37;97029.31;;;7.62;100.00
65276;BME280;51875;49.994;14.052;2023-04-15T06:13:52;97032.59;;;7.44;100.00
65276;BME280;51875;49.994;14.052;2023-04-15T06:15:08;97035.53;;;7.58;100.00
65276;BME280;51875;49.994;14.052;2023-04-15T06:16:24;97042.13;;;7.45;100.00
65276;BME280;51875;49.994;14.052;2023-04-15T06:17:43;97041.00;;;7.28;100.00
65276;BME280;51875;49.994;14.052;2023-04-15T06:18:59;97037.00;;;7.43;100.00
65276;BME280;51875;49.994;14.052;2023-04-15T06:20:15;97043.03;;;7.44;100.00
65276;BME280;51875;49.994;14.052;2023-04-15T06:21:33;97045.53;;;6.99;100.00
65276;BME280;51875;49.994;14.052;2023-04-15T06:22:49;97045.03;;;7.13;100.00
65276;BME280;51875;49.994;14.052;2023-04-15T06:24:05;97046.50;;;7.20;100.00
65276;BME280;51875;49.994;14.052;2023-04-15T06:25:21;97046.72;;;7.38;100.00
65276;BME280;51875;49.994;14.052;2023-04-15T06:26:37;97046.41;;;7.46;100.00
65276;BME280;51875;49.994;14.052;2023-04-15T06:27:52;97054.47;;;7.63;100.00
65276;BME280;51875;49.994;14.052;2023-04-15T06:29:08;97058.94;;;7.36;100.00
65276;BME280;51875;49.994;14.052;2023-04-15T06:30:24;97054.75;;;7.56;100.00
65276;BME280;51875;49.994;14.052;2023-04-15T06:31:40;97058.00;;;7.61;100.00
65276;BME280;51875;49.994;14.052;2023-04-15T06:32:56;97056.16;;;7.65;100.00
65276;BME280;51875;49.994;14.052;2023-04-15T06:34:13;97064.78;;;7.65;100.00
65276;BME280;51875;49.994;14.052;2023-04-15T06:35:29;97064.75;;;7.89;100.00
65276;BME280;51875;49.994;14.052;2023-04-15T06:36:44;97063.91;;;7.88;100.00
65276;BME280;51875;49.994;14.052;2023-04-15T06:38:00;97056.31;;;7.60;100.00